Weather at La Guardia Airport

Public forecast

Using degrees Fahrenheit for public forecast. Weather courtesy of forecast.io.

Current aviation weather report (METAR) for La Guardia Airport

Retrieved 2021/05/06 05:51 UTC (1 hour ago):

KLGA 060551Z 31013KT 10SM CLR 12/04 A2985 RMK AO2 SLP107 60001 T01220044 10144 20122 51008

Aviation forecast (TAF) for La Guardia Airport

Retrieved 2021/05/06 06:36 UTC (17 minutes ago):

TAF KLGA 060533Z 0606/0712 33015G24KT P6SM FEW070 FEW250 FM061700 32012G20KT P6SM SCT250 FM062200 30009KT P6SM BKN250 FM070200 VRB05KT P6SM BKN250